createdAt,value
2023-07-09T00:02:35.356Z,19.64
2023-07-09T00:06:03.281Z,19.56
2023-07-09T00:09:31.810Z,19.52
2023-07-09T00:12:40.547Z,19.50
2023-07-09T00:16:09.103Z,19.48
2023-07-09T00:19:36.550Z,19.43
2023-07-09T00:23:04.226Z,19.38
2023-07-09T00:26:32.114Z,19.32
2023-07-09T00:29:41.694Z,19.25
2023-07-09T00:33:09.534Z,19.18
2023-07-09T00:36:38.219Z,19.12
2023-07-09T00:40:05.761Z,19.08
2023-07-09T00:43:33.622Z,19.04
2023-07-09T00:47:01.275Z,19.01
2023-07-09T00:50:29.151Z,18.99
2023-07-09T00:53:56.772Z,18.95
2023-07-09T00:57:05.660Z,18.93
2023-07-09T01:00:14.156Z,18.92
2023-07-09T01:03:42.401Z,18.95
2023-07-09T01:07:10.106Z,18.96
2023-07-09T01:10:21.750Z,18.96
2023-07-09T01:13:49.537Z,18.88
2023-07-09T01:17:17.151Z,18.80
2023-07-09T01:19:50.162Z,18.74
2023-07-09T01:23:17.842Z,18.56
2023-07-09T01:26:26.476Z,18.45
2023-07-09T01:29:54.722Z,18.38
2023-07-09T01:33:22.417Z,18.35
2023-07-09T01:36:49.961Z,18.30
2023-07-09T01:40:29.947Z,18.22
2023-07-09T01:43:45.405Z,18.13
2023-07-09T01:47:13.064Z,18.03
2023-07-09T01:50:40.705Z,17.98
2023-07-09T01:54:08.372Z,17.96
2023-07-09T01:57:35.936Z,17.94
2023-07-09T02:01:03.617Z,17.94
2023-07-09T02:03:53.298Z,17.98
2023-07-09T02:07:20.967Z,17.94
2023-07-09T02:10:48.781Z,17.96
2023-07-09T02:14:16.625Z,17.96
2023-07-09T02:17:44.600Z,17.96
2023-07-09T02:21:12.185Z,17.93
2023-07-09T02:24:39.704Z,17.85
2023-07-09T02:28:07.682Z,17.78
2023-07-09T02:31:16.083Z,17.72
2023-07-09T02:34:43.731Z,17.65
2023-07-09T02:38:11.304Z,17.57
2023-07-09T02:41:38.888Z,17.51
2023-07-09T02:45:06.673Z,17.43
2023-07-09T02:48:34.382Z,17.36
2023-07-09T02:52:01.811Z,17.32
2023-07-09T02:55:11.435Z,17.27
2023-07-09T02:58:39.168Z,17.22
2023-07-09T03:02:06.745Z,17.19
2023-07-09T03:05:34.572Z,17.16
2023-07-09T03:08:44.183Z,17.13
2023-07-09T03:12:11.845Z,17.14
2023-07-09T03:15:39.334Z,17.15
2023-07-09T03:19:07.835Z,17.15
2023-07-09T03:22:35.680Z,17.15
2023-07-09T03:25:44.178Z,17.18
2023-07-09T03:29:11.753Z,17.22
2023-07-09T03:32:39.295Z,17.27
2023-07-09T03:36:07.013Z,17.34
2023-07-09T03:39:34.678Z,17.39
2023-07-09T03:43:02.165Z,17.42
2023-07-09T03:46:30.047Z,17.43
2023-07-09T03:49:57.881Z,17.42
2023-07-09T03:53:25.508Z,17.41
2023-07-09T03:56:53.221Z,17.38
2023-07-09T04:00:20.910Z,17.40
2023-07-09T04:03:29.580Z,17.41
2023-07-09T04:06:03.487Z,17.41
2023-07-09T04:09:31.109Z,17.43
2023-07-09T04:12:41.000Z,17.49
2023-07-09T04:15:52.710Z,17.53
2023-07-09T04:19:20.402Z,17.63
2023-07-09T04:22:47.922Z,17.72
2023-07-09T04:26:15.443Z,17.82
2023-07-09T04:29:25.656Z,17.94
2023-07-09T04:32:37.270Z,18.11
2023-07-09T04:35:46.257Z,18.28
2023-07-09T04:39:13.948Z,18.45
2023-07-09T04:42:41.758Z,18.60
2023-07-09T04:46:09.353Z,18.70
2023-07-09T04:49:37.175Z,18.80
2023-07-09T04:53:05.022Z,18.92
2023-07-09T04:56:32.765Z,19.11
2023-07-09T04:59:25.691Z,19.19
2023-07-09T05:02:53.334Z,19.34
2023-07-09T05:05:42.529Z,19.47
2023-07-09T05:09:10.113Z,19.58
2023-07-09T05:12:37.559Z,19.74
2023-07-09T05:16:05.318Z,19.77
2023-07-09T05:19:32.588Z,19.80
2023-07-09T05:22:42.172Z,19.86
2023-07-09T05:26:09.665Z,19.95
2023-07-09T05:29:19.558Z,20.07
2023-07-09T05:32:28.963Z,20.22
2023-07-09T05:35:44.203Z,20.38
2023-07-09T05:39:11.924Z,20.58
2023-07-09T05:42:40.074Z,20.76
2023-07-09T05:46:08.232Z,20.93
2023-07-09T05:49:24.820Z,21.08
2023-07-09T05:52:14.516Z,21.19
2023-07-09T05:55:03.238Z,21.31
2023-07-09T05:58:31.191Z,21.43
2023-07-09T06:01:59.140Z,21.61
2023-07-09T06:04:29.010Z,21.74
2023-07-09T06:07:56.785Z,21.88
2023-07-09T06:11:24.317Z,22.06
2023-07-09T06:14:12.499Z,22.19
2023-07-09T06:17:03.162Z,22.31
2023-07-09T06:20:30.740Z,22.42
2023-07-09T06:23:18.971Z,22.49
2023-07-09T06:26:27.014Z,22.59
2023-07-09T06:29:54.721Z,22.70
2023-07-09T06:33:22.898Z,22.83
2023-07-09T06:36:30.792Z,22.98
2023-07-09T06:39:39.853Z,23.10
2023-07-09T06:42:29.700Z,23.19
2023-07-09T06:45:23.518Z,23.32
2023-07-09T06:48:32.100Z,23.48
2023-07-09T06:51:39.810Z,23.63
2023-07-09T06:54:29.746Z,23.74
2023-07-09T06:57:38.296Z,23.87
2023-07-09T07:00:10.718Z,23.97
2023-07-09T07:03:38.467Z,24.12
2023-07-09T07:07:06.174Z,24.33
2023-07-09T07:10:14.717Z,24.46
2023-07-09T07:13:42.490Z,24.65
2023-07-09T07:17:10.182Z,24.86
2023-07-09T07:20:18.827Z,25.06
2023-07-09T07:23:08.397Z,25.22
2023-07-09T07:25:45.133Z,25.35
2023-07-09T07:28:53.877Z,25.52
2023-07-09T07:31:23.003Z,25.64
2023-07-09T07:34:38.254Z,25.83
2023-07-09T07:37:47.800Z,25.92
2023-07-09T07:40:55.602Z,26.04
2023-07-09T07:43:44.088Z,26.08
2023-07-09T07:47:11.997Z,26.23
2023-07-09T07:50:20.831Z,26.33
2023-07-09T07:53:09.808Z,26.44
2023-07-09T07:56:18.152Z,26.58
2023-07-09T07:59:46.350Z,26.70
2023-07-09T08:03:00.561Z,26.75
2023-07-09T08:06:28.214Z,26.84
2023-07-09T08:09:36.361Z,26.87
2023-07-09T08:13:04.049Z,26.98
2023-07-09T08:16:11.987Z,27.06
2023-07-09T08:19:19.736Z,27.20
2023-07-09T08:22:27.799Z,27.35
2023-07-09T08:25:35.329Z,27.49
2023-07-09T08:28:43.486Z,27.58
2023-07-09T08:31:32.567Z,27.53
2023-07-09T08:34:54.587Z,27.57
2023-07-09T08:37:29.905Z,27.58
2023-07-09T08:40:38.505Z,27.66
2023-07-09T08:43:26.552Z,27.77
2023-07-09T08:46:54.449Z,27.88
2023-07-09T08:50:02.437Z,27.82
2023-07-09T08:53:11.391Z,27.88
2023-07-09T08:56:39.397Z,27.96
2023-07-09T09:00:07.484Z,28.07
2023-07-09T09:02:36.598Z,28.08
2023-07-09T09:05:45.156Z,28.19
2023-07-09T09:08:14.359Z,28.37
2023-07-09T09:11:42.491Z,28.60
2023-07-09T09:14:50.537Z,28.63
2023-07-09T09:17:39.403Z,28.68
2023-07-09T09:20:28.192Z,28.78
2023-07-09T09:23:36.622Z,28.81
2023-07-09T09:26:44.400Z,28.87
2023-07-09T09:29:14.462Z,28.97
2023-07-09T09:32:22.025Z,28.98
2023-07-09T09:34:50.747Z,29.07
2023-07-09T09:38:18.656Z,29.12
2023-07-09T09:41:27.332Z,29.20
2023-07-09T09:44:35.052Z,29.33
2023-07-09T09:48:02.875Z,29.46
2023-07-09T09:51:10.559Z,29.58
2023-07-09T09:54:01.576Z,29.57
2023-07-09T09:57:29.205Z,29.74
2023-07-09T10:00:37.436Z,29.90
2023-07-09T10:04:05.109Z,29.95
2023-07-09T10:07:32.876Z,30.19
2023-07-09T10:10:44.857Z,30.37
2023-07-09T10:13:32.926Z,30.20
2023-07-09T10:16:01.972Z,30.12
2023-07-09T10:18:39.443Z,30.32
2023-07-09T10:22:07.149Z,30.53
2023-07-09T10:25:35.019Z,30.80
2023-07-09T10:28:25.995Z,30.91
2023-07-09T10:31:15.968Z,31.16
2023-07-09T10:34:43.639Z,30.96
2023-07-09T10:38:11.601Z,30.48
2023-07-09T10:41:26.072Z,30.19
2023-07-09T10:44:28.217Z,30.31
2023-07-09T10:46:57.561Z,30.51
2023-07-09T10:50:26.345Z,30.72
2023-07-09T10:53:35.329Z,30.99
2023-07-09T10:56:25.113Z,31.33
2023-07-09T10:59:14.944Z,31.41
2023-07-09T11:02:03.673Z,31.61
2023-07-09T11:05:12.299Z,31.83
2023-07-09T11:08:20.883Z,32.04
2023-07-09T11:11:48.824Z,32.43
2023-07-09T11:14:37.844Z,32.44
2023-07-09T11:17:45.940Z,32.51
2023-07-09T11:20:35.941Z,32.59
2023-07-09T11:23:24.976Z,32.47
2023-07-09T11:26:32.675Z,32.46
2023-07-09T11:30:00.499Z,32.57
2023-07-09T11:33:28.515Z,32.80
2023-07-09T11:36:37.695Z,32.34
2023-07-09T11:39:06.362Z,31.86
2023-07-09T11:42:34.408Z,31.85
2023-07-09T11:46:02.179Z,31.94
2023-07-09T11:48:51.060Z,32.24
2023-07-09T11:51:58.817Z,32.43
2023-07-09T11:55:06.777Z,32.50
2023-07-09T11:57:56.537Z,32.67
2023-07-09T12:01:06.584Z,32.67
2023-07-09T12:03:56.245Z,32.73
2023-07-09T12:06:45.189Z,33.00
2023-07-09T12:09:12.925Z,33.38
2023-07-09T12:12:04.983Z,33.63
2023-07-09T12:14:56.746Z,33.71
2023-07-09T12:17:29.247Z,33.68
2023-07-09T12:20:28.089Z,33.89
2023-07-09T12:23:36.604Z,34.28
2023-07-09T12:26:05.975Z,34.43
2023-07-09T12:29:34.285Z,34.66
2023-07-09T12:32:04.360Z,34.95
2023-07-09T12:35:12.022Z,35.28
2023-07-09T12:38:00.151Z,35.56
2023-07-09T12:40:48.558Z,35.69
2023-07-09T12:43:18.314Z,35.88
2023-07-09T12:45:50.866Z,36.19
2023-07-09T12:48:40.155Z,36.55
2023-07-09T12:52:08.289Z,36.25
2023-07-09T12:54:38.244Z,36.31
2023-07-09T12:57:07.799Z,36.47
2023-07-09T12:59:38.131Z,36.59
2023-07-09T13:02:06.381Z,36.78
2023-07-09T13:05:14.203Z,37.01
2023-07-09T13:08:03.217Z,36.88
2023-07-09T13:10:51.430Z,37.31
2023-07-09T13:13:42.287Z,37.31
2023-07-09T13:16:32.686Z,37.50
2023-07-09T13:19:01.399Z,37.54
2023-07-09T13:21:29.524Z,37.73
2023-07-09T13:24:37.714Z,37.92
2023-07-09T13:27:07.453Z,38.22
2023-07-09T13:29:36.868Z,38.28
2023-07-09T13:32:05.940Z,38.30
2023-07-09T13:34:37.973Z,38.28
2023-07-09T13:37:25.878Z,38.25
2023-07-09T13:40:34.471Z,36.73
2023-07-09T13:43:22.498Z,36.43
2023-07-09T13:46:30.583Z,36.73
2023-07-09T13:48:59.485Z,37.22
2023-07-09T13:51:28.599Z,37.71
2023-07-09T13:53:56.727Z,37.88
2023-07-09T13:56:24.714Z,38.02
2023-07-09T13:58:52.837Z,37.59
2023-07-09T14:01:21.268Z,36.85
2023-07-09T14:04:29.413Z,36.29
2023-07-09T14:06:58.151Z,36.24
2023-07-09T14:09:47.416Z,36.26
2023-07-09T14:12:55.030Z,36.17
2023-07-09T14:16:02.833Z,36.83
2023-07-09T14:19:10.791Z,37.68
2023-07-09T14:22:18.454Z,37.75
2023-07-09T14:25:46.266Z,36.76
2023-07-09T14:28:34.824Z,36.49
2023-07-09T14:31:42.657Z,36.66
2023-07-09T14:34:30.689Z,36.45
2023-07-09T14:37:58.312Z,35.68
2023-07-09T14:40:27.007Z,35.04
2023-07-09T14:43:54.965Z,34.56
2023-07-09T14:47:22.741Z,34.72
2023-07-09T14:50:30.501Z,34.81
2023-07-09T14:53:38.557Z,35.49
2023-07-09T14:56:46.382Z,36.63
2023-07-09T14:59:16.293Z,37.35
2023-07-09T15:01:44.966Z,37.92
2023-07-09T15:04:33.964Z,38.16
2023-07-09T15:07:03.039Z,38.16
2023-07-09T15:09:32.071Z,38.53
2023-07-09T15:12:21.705Z,39.05
2023-07-09T15:14:50.481Z,39.78
2023-07-09T15:17:20.056Z,40.34
2023-07-09T15:19:49.054Z,40.69
2023-07-09T15:22:18.199Z,41.19
2023-07-09T15:24:45.952Z,41.46
2023-07-09T15:27:14.189Z,41.54
2023-07-09T15:30:22.297Z,41.82
2023-07-09T15:32:51.122Z,41.87
2023-07-09T15:35:19.918Z,41.93
2023-07-09T15:37:49.645Z,42.16
2023-07-09T15:40:18.676Z,42.38
2023-07-09T15:42:47.859Z,42.36
2023-07-09T15:45:44.872Z,42.46
2023-07-09T15:48:14.602Z,42.22
2023-07-09T15:50:43.353Z,42.30
2023-07-09T15:53:11.926Z,42.64
2023-07-09T15:55:40.540Z,42.72
2023-07-09T15:58:09.739Z,42.71
2023-07-09T16:00:40.151Z,42.82
2023-07-09T16:03:20.608Z,42.94
2023-07-09T16:05:56.641Z,43.05
2023-07-09T16:08:24.455Z,42.74
2023-07-09T16:10:56.042Z,42.86
2023-07-09T16:13:25.467Z,42.76
2023-07-09T16:16:14.028Z,42.03
2023-07-09T16:18:42.780Z,42.03
2023-07-09T16:21:10.577Z,42.30
2023-07-09T16:23:43.342Z,42.15
2023-07-09T16:26:12.905Z,41.53
2023-07-09T16:29:01.092Z,40.47
2023-07-09T16:31:49.466Z,39.75
2023-07-09T16:34:17.688Z,39.89
2023-07-09T16:37:26.472Z,39.77
2023-07-09T16:39:54.746Z,39.60
2023-07-09T16:42:43.128Z,39.74
2023-07-09T16:45:11.486Z,39.75
2023-07-09T16:47:39.595Z,39.98
2023-07-09T16:50:47.948Z,40.22
2023-07-09T16:53:56.444Z,40.14
2023-07-09T16:56:44.618Z,40.19
2023-07-09T16:59:13.111Z,40.21
2023-07-09T17:01:43.116Z,40.05
2023-07-09T17:04:32.278Z,39.96
2023-07-09T17:07:40.906Z,39.69
2023-07-09T17:11:08.648Z,39.55
2023-07-09T17:14:16.561Z,39.25
2023-07-09T17:17:26.126Z,38.87
2023-07-09T17:20:34.245Z,38.52
2023-07-09T17:23:22.583Z,38.37
2023-07-09T17:26:12.419Z,38.20
2023-07-09T17:28:41.395Z,38.01
2023-07-09T17:31:29.846Z,37.63
2023-07-09T17:34:37.905Z,37.25
2023-07-09T17:37:25.957Z,36.50
2023-07-09T17:43:44.942Z,35.11
2023-07-09T17:46:13.385Z,34.53
2023-07-09T17:49:41.339Z,33.76
2023-07-09T17:52:50.466Z,33.14
2023-07-09T17:55:18.933Z,32.69
2023-07-09T17:57:47.921Z,32.28
2023-07-09T18:00:58.138Z,31.84
2023-07-09T18:03:31.945Z,31.51
2023-07-09T18:06:59.692Z,31.13
2023-07-09T18:09:28.326Z,30.93
2023-07-09T18:12:55.959Z,30.60
2023-07-09T18:16:23.963Z,30.29
2023-07-09T18:19:11.819Z,30.06
2023-07-09T18:22:00.614Z,29.83
2023-07-09T18:24:29.299Z,29.64
2023-07-09T18:27:18.128Z,29.46
2023-07-09T18:30:07.375Z,29.29
2023-07-09T18:32:36.027Z,29.12
2023-07-09T18:36:03.680Z,28.96
2023-07-09T18:38:31.519Z,28.88
2023-07-09T18:41:00.604Z,28.79
2023-07-09T18:43:50.526Z,28.69
2023-07-09T18:46:38.918Z,28.59
2023-07-09T18:49:28.209Z,28.52
2023-07-09T18:52:36.030Z,28.44
2023-07-09T18:55:44.565Z,28.31
2023-07-09T18:58:52.973Z,28.16
2023-07-09T19:02:20.782Z,27.99
2023-07-09T19:05:28.520Z,27.86
2023-07-09T19:08:37.221Z,27.72
2023-07-09T19:11:28.802Z,27.63
2023-07-09T19:13:59.239Z,27.60
2023-07-09T19:17:06.860Z,27.52
2023-07-09T19:19:56.479Z,27.40
2023-07-09T19:23:04.498Z,27.25
2023-07-09T19:26:32.293Z,27.19
2023-07-09T19:29:40.522Z,27.15
2023-07-09T19:33:08.303Z,27.11
2023-07-09T19:36:15.759Z,27.05
2023-07-09T19:39:43.536Z,26.96
2023-07-09T19:43:11.549Z,26.86
2023-07-09T19:46:19.689Z,26.77
2023-07-09T19:49:47.153Z,26.68
2023-07-09T19:52:56.774Z,26.61
2023-07-09T19:56:24.479Z,26.52
2023-07-09T19:59:52.141Z,26.47
2023-07-09T20:02:40.537Z,26.42
2023-07-09T20:06:08.259Z,26.34
2023-07-09T20:08:58.757Z,26.30
2023-07-09T20:12:06.914Z,26.25
2023-07-09T20:15:18.491Z,26.13
2023-07-09T20:18:06.918Z,26.02
2023-07-09T20:21:14.667Z,25.95
2023-07-09T20:24:24.535Z,25.93
2023-07-09T20:27:32.597Z,25.86
2023-07-09T20:30:22.043Z,25.80
2023-07-09T20:33:10.357Z,25.74
2023-07-09T20:36:38.352Z,25.65
2023-07-09T20:39:07.229Z,25.62
2023-07-09T20:41:56.103Z,25.60
2023-07-09T20:45:04.221Z,25.54
2023-07-09T20:48:31.980Z,25.39
2023-07-09T20:51:39.715Z,25.21
2023-07-09T20:55:07.287Z,25.15
2023-07-09T20:58:35.076Z,25.08
2023-07-09T21:01:43.358Z,24.98
2023-07-09T21:04:53.268Z,24.95
2023-07-09T21:08:01.236Z,24.96
2023-07-09T21:10:50.150Z,24.95
2023-07-09T21:14:17.885Z,24.89
2023-07-09T21:17:25.892Z,24.78
2023-07-09T21:20:33.756Z,24.76
2023-07-09T21:23:50.389Z,24.70
2023-07-09T21:27:18.007Z,24.68
2023-07-09T21:30:27.669Z,24.56
2023-07-09T21:32:58.123Z,24.42
2023-07-09T21:35:47.022Z,24.29
2023-07-09T21:38:15.328Z,24.21
2023-07-09T21:41:02.857Z,24.15
2023-07-09T21:44:11.933Z,24.07
2023-07-09T21:47:39.753Z,24.03
2023-07-09T21:50:27.511Z,23.96
2023-07-09T21:52:56.346Z,23.92
2023-07-09T21:56:24.247Z,23.81
2023-07-09T21:59:32.059Z,23.73
2023-07-09T22:02:59.830Z,23.63
2023-07-09T22:06:07.348Z,23.59
2023-07-09T22:09:15.519Z,23.48
2023-07-09T22:12:43.478Z,23.33
2023-07-09T22:16:10.913Z,23.23
2023-07-09T22:19:00.074Z,23.23
2023-07-09T22:22:07.924Z,23.26
2023-07-09T22:24:57.760Z,23.27
2023-07-09T22:28:25.353Z,23.18
2023-07-09T22:31:14.214Z,23.09
2023-07-09T22:34:04.414Z,23.00
2023-07-09T22:37:32.218Z,22.94
2023-07-09T22:40:40.209Z,22.93
2023-07-09T22:43:28.675Z,22.95
2023-07-09T22:46:56.326Z,22.88
2023-07-09T22:50:04.659Z,22.81
2023-07-09T22:53:12.481Z,22.71
2023-07-09T22:56:02.633Z,22.66
2023-07-09T22:59:10.078Z,22.67
2023-07-09T23:02:20.476Z,22.71
2023-07-09T23:05:08.544Z,22.73
2023-07-09T23:08:16.188Z,22.64
2023-07-09T23:10:45.050Z,22.49
2023-07-09T23:14:12.902Z,22.38
2023-07-09T23:17:01.537Z,22.36
2023-07-09T23:20:05.537Z,22.40
2023-07-09T23:23:15.385Z,22.35
2023-07-09T23:26:43.062Z,22.31
2023-07-09T23:29:51.989Z,22.29
2023-07-09T23:33:20.050Z,22.17
2023-07-09T23:36:31.339Z,22.10
2023-07-09T23:39:07.997Z,22.02
2023-07-09T23:41:35.633Z,21.88
2023-07-09T23:45:03.359Z,21.79
2023-07-09T23:47:52.917Z,21.65
2023-07-09T23:50:42.819Z,21.57
2023-07-09T23:53:31.575Z,21.54
2023-07-09T23:56:59.382Z,21.43
